Terminal Aerodrome Forecast
Issued by NWS

Home | Current Version | Previous Version | Text Only | Print | Product List | Glossary On
Versions: 1 2 3 4 5 6 7 8 9 10 11 12 13 14 15
137
FTUS46 KSEW 081746
TAFBLI
TAF
KBLI 081746Z 0818/0918 03016G30KT P6SM BKN200
     FM090700 06015G25KT P6SM -SN SCT025 OVC050
     FM090900 06015G25KT 4SM -SN SCT013 BKN025 OVC050
     FM091600 04012KT 6SM -RA SCT015 OVC030=

USA.gov is the U.S. government's official web portal to all federal, state and local government web resources and services.